createdAt,value
2023-04-10T00:00:13.340Z,8.40
2023-04-10T00:01:14.856Z,8.43
2023-04-10T00:02:16.411Z,8.13
2023-04-10T00:03:18.346Z,8.07
2023-04-10T00:04:20.066Z,8.02
2023-04-10T00:05:21.577Z,7.70
2023-04-10T00:06:23.044Z,8.20
2023-04-10T00:07:24.527Z,8.25
2023-04-10T00:08:26.292Z,7.47
2023-04-10T00:09:29.020Z,8.23
2023-04-10T00:10:31.757Z,8.35
2023-04-10T00:11:33.253Z,8.60
2023-04-10T00:12:36.946Z,8.55
2023-04-10T00:13:38.419Z,8.30
2023-04-10T00:14:39.930Z,8.43
2023-04-10T00:15:41.637Z,8.05
2023-04-10T00:16:43.069Z,8.63
2023-04-10T00:17:44.619Z,8.90
2023-04-10T00:18:47.179Z,8.43
2023-04-10T00:19:48.598Z,8.75
2023-04-10T00:20:50.210Z,8.90
2023-04-10T00:21:51.715Z,8.38
2023-04-10T00:22:55.563Z,8.40
2023-04-10T00:23:56.988Z,8.30
2023-04-10T00:24:58.403Z,8.32
2023-04-10T00:26:00.148Z,8.90
2023-04-10T00:27:01.699Z,7.90
2023-04-10T00:28:06.210Z,8.98
2023-04-10T00:29:08.286Z,9.07
2023-04-10T00:30:09.967Z,8.52
2023-04-10T00:31:11.597Z,8.13
2023-04-10T00:32:13.268Z,8.07
2023-04-10T00:33:14.880Z,8.75
2023-04-10T00:34:16.661Z,8.38
2023-04-10T00:35:20.896Z,8.38
2023-04-10T00:36:22.853Z,8.57
2023-04-10T00:37:24.828Z,9.00
2023-04-10T00:38:26.388Z,8.32
2023-04-10T00:39:27.811Z,8.43
2023-04-10T00:40:30.438Z,7.75
2023-04-10T00:41:31.856Z,8.63
2023-04-10T00:42:33.383Z,8.68
2023-04-10T00:43:34.850Z,8.25
2023-04-10T00:44:37.744Z,8.60
2023-04-10T00:45:39.701Z,8.18
2023-04-10T00:46:41.545Z,8.68
2023-04-10T00:47:43.222Z,8.35
2023-04-10T00:48:44.830Z,8.02
2023-04-10T00:49:46.567Z,8.52
2023-04-10T00:50:48.120Z,9.27
2023-04-10T00:51:49.728Z,8.50
2023-04-10T00:52:51.627Z,7.45
2023-04-10T00:53:55.145Z,8.68
2023-04-10T00:54:57.115Z,8.57
2023-04-10T00:56:00.324Z,8.73
2023-04-10T00:57:03.213Z,8.02
2023-04-10T00:58:04.711Z,8.38
2023-04-10T00:59:07.301Z,8.20
2023-04-10T01:00:09.946Z,8.02
2023-04-10T01:01:11.514Z,8.07
2023-04-10T01:02:13.393Z,7.65
2023-04-10T01:03:17.999Z,8.07
2023-04-10T01:04:19.872Z,8.43
2023-04-10T01:05:22.282Z,8.32
2023-04-10T01:06:38.824Z,8.30
2023-04-10T01:08:18.556Z,8.05
2023-04-10T01:09:39.671Z,8.27
2023-04-10T01:10:51.868Z,8.60
2023-04-10T01:12:09.078Z,7.25
2023-04-10T01:13:24.420Z,8.23
2023-04-10T01:15:53.186Z,7.70
2023-04-10T01:17:04.402Z,8.02
2023-04-10T01:18:31.687Z,8.55
2023-04-10T01:19:47.368Z,8.38
2023-04-10T01:20:48.917Z,7.72
2023-04-10T01:21:53.538Z,8.20
2023-04-10T01:23:42.625Z,7.43
2023-04-10T01:25:15.060Z,8.48
2023-04-10T01:26:19.740Z,8.88
2023-04-10T01:27:40.202Z,9.45
2023-04-10T01:29:00.529Z,8.32
2023-04-10T01:30:04.311Z,7.72
2023-04-10T01:31:08.616Z,8.32
2023-04-10T01:32:23.111Z,8.60
2023-04-10T01:33:33.738Z,8.75
2023-04-10T01:34:47.794Z,7.90
2023-04-10T01:35:52.475Z,8.23
2023-04-10T01:36:58.556Z,8.40
2023-04-10T01:38:02.246Z,8.88
2023-04-10T01:39:05.584Z,8.63
2023-04-10T01:40:10.452Z,7.97
2023-04-10T01:41:13.653Z,8.63
2023-04-10T01:42:17.834Z,8.55
2023-04-10T01:43:21.901Z,7.78
2023-04-10T01:44:31.494Z,8.70
2023-04-10T01:45:33.708Z,7.45
2023-04-10T01:46:37.991Z,8.85
2023-04-10T01:47:39.909Z,7.18
2023-04-10T01:48:41.919Z,8.90
2023-04-10T01:49:47.100Z,8.48
2023-04-10T01:50:50.343Z,8.27
2023-04-10T01:51:54.257Z,7.50
2023-04-10T01:52:57.386Z,8.70
2023-04-10T01:54:01.214Z,7.95
2023-04-10T01:55:04.510Z,8.43
2023-04-10T01:56:08.343Z,8.35
2023-04-10T01:57:12.625Z,8.98
2023-04-10T01:58:14.248Z,8.55
2023-04-10T01:59:16.204Z,8.27
2023-04-10T02:00:17.874Z,8.93
2023-04-10T02:01:29.005Z,8.45
2023-04-10T02:02:32.913Z,8.50
2023-04-10T02:04:36.228Z,8.93
2023-04-10T02:05:54.933Z,8.02
2023-04-10T02:07:09.330Z,8.82
2023-04-10T02:08:28.725Z,8.27
2023-04-10T02:10:02.185Z,8.57
2023-04-10T02:11:17.854Z,8.38
2023-04-10T02:12:26.703Z,8.02
2023-04-10T02:13:29.891Z,8.65
2023-04-10T02:14:34.016Z,8.75
2023-04-10T02:15:37.425Z,9.40
2023-04-10T02:16:39.408Z,8.52
2023-04-10T02:17:41.936Z,8.50
2023-04-10T02:18:43.749Z,8.60
2023-04-10T02:19:48.670Z,8.38
2023-04-10T02:20:51.081Z,9.18
2023-04-10T02:21:54.103Z,9.05
2023-04-10T02:23:58.873Z,8.10
2023-04-10T02:26:11.130Z,8.38
2023-04-10T02:27:12.636Z,8.68
2023-04-10T02:28:14.084Z,8.57
2023-04-10T02:29:15.837Z,8.40
2023-04-10T02:30:17.406Z,8.63
2023-04-10T02:31:19.096Z,8.48
2023-04-10T02:32:20.761Z,7.95
2023-04-10T02:33:22.204Z,8.63
2023-04-10T02:34:23.743Z,8.55
2023-04-10T02:35:26.375Z,8.50
2023-04-10T02:36:28.914Z,8.80
2023-04-10T02:37:31.375Z,8.43
2023-04-10T02:38:32.825Z,8.57
2023-04-10T02:39:35.034Z,9.20
2023-04-10T02:40:37.243Z,8.88
2023-04-10T02:41:38.717Z,9.23
2023-04-10T02:42:40.483Z,8.77
2023-04-10T02:43:42.387Z,9.80
2023-04-10T02:44:44.853Z,9.25
2023-04-10T02:45:46.555Z,9.23
2023-04-10T02:46:48.183Z,8.68
2023-04-10T02:47:49.704Z,8.48
2023-04-10T02:48:52.788Z,8.63
2023-04-10T02:51:57.815Z,8.43
2023-04-10T02:52:59.277Z,8.27
2023-04-10T02:54:00.827Z,7.40
2023-04-10T02:55:02.264Z,8.52
2023-04-10T02:56:06.548Z,8.30
2023-04-10T02:57:07.988Z,9.23
2023-04-10T02:58:10.179Z,8.32
2023-04-10T02:59:13.322Z,7.95
2023-04-10T03:00:15.683Z,8.98
2023-04-10T03:01:17.260Z,8.45
2023-04-10T03:02:18.888Z,8.50
2023-04-10T03:03:20.983Z,8.48
2023-04-10T03:04:23.377Z,8.35
2023-04-10T03:05:24.861Z,9.02
2023-04-10T03:06:27.356Z,9.07
2023-04-10T03:07:28.790Z,8.65
2023-04-10T03:08:30.706Z,8.13
2023-04-10T03:09:32.156Z,9.57
2023-04-10T03:10:33.712Z,8.15
2023-04-10T03:11:35.788Z,8.05
2023-04-10T03:12:37.578Z,9.32
2023-04-10T03:13:39.486Z,8.40
2023-04-10T03:14:41.474Z,8.20
2023-04-10T03:15:43.589Z,8.55
2023-04-10T03:16:45.366Z,8.48
2023-04-10T03:17:47.429Z,9.82
2023-04-10T03:18:49.485Z,9.00
2023-04-10T03:19:50.982Z,8.80
2023-04-10T03:20:52.510Z,8.48
2023-04-10T03:21:54.429Z,8.25
2023-04-10T03:22:55.996Z,9.15
2023-04-10T03:23:57.592Z,7.95
2023-04-10T03:24:59.157Z,8.18
2023-04-10T03:26:00.736Z,8.38
2023-04-10T03:27:02.328Z,9.20
2023-04-10T03:28:03.930Z,8.88
2023-04-10T03:29:05.416Z,7.75
2023-04-10T03:30:07.822Z,9.10
2023-04-10T03:31:10.522Z,7.88
2023-04-10T03:32:11.949Z,7.57
2023-04-10T03:33:13.877Z,8.23
2023-04-10T03:34:15.348Z,8.88
2023-04-10T03:35:16.830Z,8.93
2023-04-10T03:36:18.672Z,8.52
2023-04-10T03:37:20.297Z,8.27
2023-04-10T03:38:22.216Z,8.68
2023-04-10T03:39:24.675Z,9.20
2023-04-10T03:40:26.407Z,8.55
2023-04-10T03:41:27.894Z,8.40
2023-04-10T03:42:29.489Z,8.80
2023-04-10T03:43:31.822Z,8.70
2023-04-10T03:44:34.255Z,7.70
2023-04-10T03:45:35.690Z,8.52
2023-04-10T03:46:37.152Z,8.25
2023-04-10T03:47:39.132Z,7.82
2023-04-10T03:48:41.345Z,8.95
2023-04-10T03:49:42.783Z,7.82
2023-04-10T03:50:44.991Z,8.05
2023-04-10T03:51:46.463Z,8.73
2023-04-10T03:52:49.817Z,8.80
2023-04-10T03:53:51.685Z,8.23
2023-04-10T03:54:56.345Z,8.68
2023-04-10T03:55:57.765Z,9.15
2023-04-10T03:56:59.193Z,8.40
2023-04-10T03:58:00.764Z,8.75
2023-04-10T03:59:02.270Z,8.00
2023-04-10T04:00:05.720Z,7.80
2023-04-10T04:01:07.732Z,8.43
2023-04-10T04:02:09.306Z,8.13
2023-04-10T04:03:10.973Z,8.45
2023-04-10T04:04:12.670Z,8.68
2023-04-10T04:05:14.216Z,9.00
2023-04-10T04:06:16.213Z,8.38
2023-04-10T04:07:17.718Z,8.60
2023-04-10T04:08:19.294Z,7.95
2023-04-10T04:09:20.775Z,8.25
2023-04-10T04:10:22.289Z,8.15
2023-04-10T04:11:23.746Z,8.23
2023-04-10T04:12:25.254Z,8.60
2023-04-10T04:13:27.254Z,7.57
2023-04-10T04:14:28.698Z,8.00
2023-04-10T04:15:30.356Z,8.82
2023-04-10T04:16:32.321Z,8.45
2023-04-10T04:17:34.366Z,8.15
2023-04-10T04:18:36.573Z,8.18
2023-04-10T04:19:38.497Z,8.70
2023-04-10T04:20:39.965Z,8.68
2023-04-10T04:21:41.432Z,8.15
2023-04-10T04:22:42.922Z,7.95
2023-04-10T04:23:44.388Z,8.80
2023-04-10T04:24:45.823Z,7.97
2023-04-10T04:25:47.266Z,7.85
2023-04-10T04:26:48.803Z,8.68
2023-04-10T04:27:50.786Z,7.60
2023-04-10T04:28:52.916Z,9.43
2023-04-10T04:29:54.365Z,8.10
2023-04-10T04:30:55.904Z,8.23
2023-04-10T04:31:57.446Z,8.07
2023-04-10T04:32:59.489Z,8.30
2023-04-10T04:34:01.406Z,9.43
2023-04-10T04:35:03.203Z,8.15
2023-04-10T04:36:05.466Z,8.73
2023-04-10T04:37:06.918Z,8.38
2023-04-10T04:38:08.388Z,8.68
2023-04-10T04:39:09.827Z,9.02
2023-04-10T04:40:11.637Z,8.50
2023-04-10T04:41:13.069Z,8.07
2023-04-10T04:42:14.553Z,8.52
2023-04-10T04:43:16.115Z,8.60
2023-04-10T04:44:20.167Z,8.43
2023-04-10T04:45:21.926Z,8.93
2023-04-10T04:46:23.526Z,8.63
2023-04-10T04:47:25.701Z,8.20
2023-04-10T04:48:27.617Z,8.82
2023-04-10T04:49:29.594Z,9.23
2023-04-10T04:50:31.159Z,8.55
2023-04-10T04:51:32.611Z,9.18
2023-04-10T04:52:35.827Z,8.73
2023-04-10T04:53:37.316Z,9.10
2023-04-10T04:54:38.779Z,8.93
2023-04-10T04:55:40.931Z,8.68
2023-04-10T04:56:42.494Z,8.75
2023-04-10T04:57:44.418Z,9.25
2023-04-10T04:58:45.852Z,8.85
2023-04-10T04:59:47.262Z,8.73
2023-04-10T05:00:48.737Z,9.35
2023-04-10T05:01:50.461Z,9.48
2023-04-10T05:02:52.568Z,8.68
2023-04-10T05:03:54.350Z,9.43
2023-04-10T05:04:56.033Z,9.52
2023-04-10T05:05:58.212Z,8.93
2023-04-10T05:06:59.692Z,9.02
2023-04-10T05:08:01.181Z,9.50
2023-04-10T05:09:03.229Z,8.80
2023-04-10T05:10:05.232Z,8.55
2023-04-10T05:11:06.970Z,9.07
2023-04-10T05:12:08.410Z,9.55
2023-04-10T05:13:09.842Z,9.23
2023-04-10T05:14:11.264Z,8.85
2023-04-10T05:15:12.704Z,9.40
2023-04-10T05:16:14.252Z,8.63
2023-04-10T05:17:16.882Z,9.77
2023-04-10T05:18:21.815Z,8.90
2023-04-10T05:19:23.284Z,9.15
2023-04-10T05:20:24.806Z,9.00
2023-04-10T05:21:27.431Z,9.13
2023-04-10T05:22:28.979Z,9.30
2023-04-10T05:23:30.466Z,9.65
2023-04-10T05:24:31.991Z,9.70
2023-04-10T05:25:33.441Z,8.98
2023-04-10T05:26:35.434Z,9.75
2023-04-10T05:27:37.450Z,9.82
2023-04-10T05:28:38.824Z,9.73
2023-04-10T05:29:40.275Z,9.30
2023-04-10T05:30:42.192Z,9.60
2023-04-10T05:31:43.638Z,9.07
2023-04-10T05:32:46.204Z,9.52
2023-04-10T05:33:47.679Z,9.50
2023-04-10T05:34:49.127Z,9.52
2023-04-10T05:35:50.738Z,9.77
2023-04-10T05:36:52.143Z,9.52
2023-04-10T05:37:53.609Z,9.02
2023-04-10T05:38:55.167Z,9.07
2023-04-10T05:39:56.649Z,8.77
2023-04-10T05:40:58.053Z,9.05
2023-04-10T05:41:59.478Z,8.68
2023-04-10T05:43:00.939Z,8.73
2023-04-10T05:44:02.377Z,9.13
2023-04-10T05:45:04.089Z,8.85
2023-04-10T05:46:05.980Z,8.05
2023-04-10T05:47:07.408Z,9.07
2023-04-10T05:48:08.822Z,9.38
2023-04-10T05:49:10.217Z,9.70
2023-04-10T05:50:11.728Z,9.35
2023-04-10T05:51:13.146Z,8.68
2023-04-10T05:52:14.649Z,9.13
2023-04-10T05:53:18.957Z,8.57
2023-04-10T05:54:20.812Z,8.77
2023-04-10T05:55:22.222Z,8.68
2023-04-10T05:56:23.672Z,9.02
2023-04-10T05:57:25.536Z,9.10
2023-04-10T05:58:27.184Z,8.82
2023-04-10T05:59:29.112Z,8.65
2023-04-10T06:00:30.740Z,8.88
2023-04-10T06:01:32.148Z,9.07
2023-04-10T06:02:33.793Z,8.68
2023-04-10T06:03:36.131Z,9.52
2023-04-10T06:04:37.906Z,8.95
2023-04-10T06:05:41.324Z,8.40
2023-04-10T06:06:42.914Z,9.32
2023-04-10T06:07:44.390Z,9.38
2023-04-10T06:08:45.860Z,9.65
2023-04-10T06:09:47.272Z,9.00
2023-04-10T06:10:48.947Z,9.02
2023-04-10T06:11:50.520Z,10.07
2023-04-10T06:12:52.009Z,9.40
2023-04-10T06:13:53.433Z,9.38
2023-04-10T06:14:54.882Z,9.48
2023-04-10T06:15:56.427Z,10.30
2023-04-10T06:16:57.938Z,9.93
2023-04-10T06:17:59.406Z,10.00
2023-04-10T06:19:01.022Z,10.32
2023-04-10T06:20:06.165Z,9.60
2023-04-10T06:21:08.211Z,9.88
2023-04-10T06:22:09.635Z,10.55
2023-04-10T06:23:12.381Z,9.85
2023-04-10T06:24:14.336Z,10.00
2023-04-10T06:25:16.130Z,10.38
2023-04-10T06:26:18.222Z,10.30
2023-04-10T06:27:20.196Z,10.27
2023-04-10T06:28:21.669Z,10.13
2023-04-10T06:29:26.018Z,10.25
2023-04-10T06:30:31.151Z,10.15
2023-04-10T06:31:34.757Z,10.18
2023-04-10T06:32:36.257Z,10.75
2023-04-10T06:33:37.766Z,10.32
2023-04-10T06:34:39.574Z,10.07
2023-04-10T06:35:41.605Z,9.43
2023-04-10T06:36:43.691Z,9.82
2023-04-10T06:37:47.392Z,9.50
2023-04-10T06:38:55.058Z,10.25
2023-04-10T06:41:31.556Z,9.15
2023-04-10T06:42:33.523Z,9.40
2023-04-10T06:43:38.964Z,10.02
2023-04-10T06:44:44.235Z,9.73
2023-04-10T06:45:46.047Z,9.80
2023-04-10T06:46:47.530Z,9.10
2023-04-10T06:47:49.134Z,9.90
2023-04-10T06:48:50.762Z,9.85
2023-04-10T06:49:52.490Z,9.20
2023-04-10T06:50:54.204Z,9.57
2023-04-10T06:51:55.908Z,10.25
2023-04-10T06:52:59.994Z,9.98
2023-04-10T06:54:01.649Z,10.05
2023-04-10T06:55:03.184Z,9.55
2023-04-10T06:56:05.370Z,9.73
2023-04-10T06:57:07.097Z,9.85
2023-04-10T06:58:13.669Z,10.15
2023-04-10T06:59:17.413Z,9.80
2023-04-10T07:00:19.394Z,9.70
2023-04-10T07:01:20.956Z,10.05
2023-04-10T07:02:23.023Z,9.32
2023-04-10T07:03:25.092Z,9.23
2023-04-10T07:04:26.621Z,9.15
2023-04-10T07:05:29.279Z,10.20
2023-04-10T07:06:31.423Z,9.57
2023-04-10T07:07:33.884Z,9.73
2023-04-10T07:08:35.612Z,9.23
2023-04-10T07:09:37.068Z,9.35
2023-04-10T07:10:38.506Z,9.90
2023-04-10T07:11:40.005Z,9.15
2023-04-10T07:12:41.660Z,9.82
2023-04-10T07:13:43.092Z,9.05
2023-04-10T07:14:44.584Z,9.32
2023-04-10T07:15:46.077Z,9.68
2023-04-10T07:16:51.884Z,9.13
2023-04-10T07:17:54.975Z,9.30
2023-04-10T07:19:59.385Z,8.82
2023-04-10T07:21:01.124Z,8.55
2023-04-10T07:22:02.578Z,8.90
2023-04-10T07:23:07.351Z,8.40
2023-04-10T07:24:08.928Z,8.15
2023-04-10T07:25:10.674Z,9.38
2023-04-10T07:26:12.505Z,8.20
2023-04-10T07:27:13.935Z,9.60
2023-04-10T07:28:15.373Z,9.43
2023-04-10T07:29:16.868Z,8.70
2023-04-10T07:30:18.963Z,9.57
2023-04-10T07:31:20.559Z,8.40
2023-04-10T07:32:22.725Z,7.85
2023-04-10T07:33:24.418Z,8.05
2023-04-10T07:34:26.266Z,8.40
2023-04-10T07:35:27.725Z,7.63
2023-04-10T07:36:29.524Z,8.35
2023-04-10T07:37:31.490Z,7.95
2023-04-10T07:38:33.169Z,8.00
2023-04-10T07:39:34.579Z,7.28
2023-04-10T07:40:35.994Z,7.97
2023-04-10T07:41:37.966Z,8.00
2023-04-10T07:42:39.443Z,8.27
2023-04-10T07:43:41.566Z,7.75
2023-04-10T07:44:43.017Z,7.50
2023-04-10T07:45:44.488Z,7.82
2023-04-10T07:46:45.981Z,7.20
2023-04-10T07:47:47.779Z,7.88
2023-04-10T07:48:49.805Z,7.75
2023-04-10T07:49:51.340Z,7.80
2023-04-10T07:50:53.115Z,7.45
2023-04-10T07:51:54.682Z,7.50
2023-04-10T07:52:56.910Z,7.30
2023-04-10T07:53:58.431Z,7.85
2023-04-10T07:55:03.173Z,7.38
2023-04-10T07:56:05.134Z,7.80
2023-04-10T07:57:06.626Z,7.95
2023-04-10T07:58:08.117Z,8.10
2023-04-10T07:59:10.128Z,7.10
2023-04-10T08:00:12.288Z,8.02
2023-04-10T08:01:14.835Z,7.88
2023-04-10T08:02:16.349Z,7.65
2023-04-10T08:03:18.142Z,7.75
2023-04-10T08:04:20.590Z,7.30
2023-04-10T08:05:22.272Z,7.57
2023-04-10T08:06:23.849Z,7.47
2023-04-10T08:07:25.366Z,6.88
2023-04-10T08:08:26.852Z,8.45
2023-04-10T08:09:28.883Z,7.25
2023-04-10T08:10:30.400Z,7.80
2023-04-10T08:11:35.288Z,7.50
2023-04-10T08:12:38.127Z,7.35
2023-04-10T08:13:39.552Z,6.95
2023-04-10T08:14:41.269Z,7.07
2023-04-10T08:15:43.166Z,7.43
2023-04-10T08:16:44.708Z,8.10
2023-04-10T08:17:46.184Z,7.95
2023-04-10T08:18:47.656Z,7.68
2023-04-10T08:19:49.121Z,7.07
2023-04-10T08:20:50.564Z,7.13
2023-04-10T08:21:52.014Z,7.78
2023-04-10T08:22:54.237Z,7.70
2023-04-10T08:24:01.222Z,7.57
2023-04-10T08:25:03.290Z,7.18
2023-04-10T08:26:05.531Z,7.53
2023-04-10T08:27:06.960Z,7.13
2023-04-10T08:28:08.378Z,7.50
2023-04-10T08:29:09.810Z,7.22
2023-04-10T08:30:11.657Z,7.30
2023-04-10T08:31:14.169Z,7.60
2023-04-10T08:32:15.732Z,7.57
2023-04-10T08:33:17.271Z,7.32
2023-04-10T08:34:18.691Z,7.07
2023-04-10T08:35:20.308Z,7.40
2023-04-10T08:36:21.958Z,7.63
2023-04-10T08:37:23.457Z,7.68
2023-04-10T08:38:27.536Z,7.75
2023-04-10T08:39:28.965Z,7.60
2023-04-10T08:40:30.493Z,6.95
2023-04-10T08:41:32.176Z,7.20
2023-04-10T08:42:34.716Z,7.00
2023-04-10T08:43:37.134Z,7.80
2023-04-10T08:44:39.818Z,7.55
2023-04-10T08:45:41.501Z,7.43
2023-04-10T08:46:44.868Z,7.63
2023-04-10T08:47:48.986Z,7.75
2023-04-10T08:49:04.118Z,7.03
2023-04-10T08:51:19.985Z,7.20
2023-04-10T08:52:25.646Z,7.20
2023-04-10T08:53:31.581Z,6.50
2023-04-10T08:54:35.758Z,6.75
2023-04-10T08:55:38.409Z,6.60
2023-04-10T08:56:42.811Z,7.07
2023-04-10T08:57:50.922Z,6.65
2023-04-10T09:00:22.115Z,7.30
2023-04-10T09:01:25.604Z,7.10
2023-04-10T09:02:28.797Z,6.90
2023-04-10T09:03:31.113Z,7.13
2023-04-10T09:04:33.513Z,7.43
2023-04-10T09:05:35.987Z,7.20
2023-04-10T09:06:37.567Z,7.40
2023-04-10T09:07:39.229Z,6.85
2023-04-10T09:08:40.696Z,7.40
2023-04-10T09:09:43.224Z,7.07
2023-04-10T09:10:44.687Z,7.03
2023-04-10T09:11:52.262Z,6.82
2023-04-10T09:12:53.741Z,6.88
2023-04-10T09:13:55.411Z,6.88
2023-04-10T09:14:57.235Z,7.35
2023-04-10T09:16:00.288Z,7.22
2023-04-10T09:17:16.207Z,6.63
2023-04-10T09:18:18.156Z,6.38
2023-04-10T09:19:33.730Z,6.80
2023-04-10T09:20:35.331Z,6.70
2023-04-10T09:21:36.854Z,6.40
2023-04-10T09:22:38.904Z,6.50
2023-04-10T09:23:42.222Z,6.35
2023-04-10T09:24:45.457Z,6.43
2023-04-10T09:25:47.855Z,6.30
2023-04-10T09:26:50.246Z,6.47
2023-04-10T09:28:08.723Z,6.85
2023-04-10T09:29:12.312Z,6.22
2023-04-10T09:30:34.316Z,6.05
2023-04-10T09:31:40.155Z,6.10
2023-04-10T09:32:44.304Z,6.18
2023-04-10T09:33:46.350Z,5.68
2023-04-10T09:34:57.144Z,6.18
2023-04-10T09:36:04.195Z,6.55
2023-04-10T09:37:06.102Z,5.88
2023-04-10T09:38:18.671Z,5.85
2023-04-10T09:39:20.302Z,6.22
2023-04-10T09:40:25.256Z,5.40
2023-04-10T09:41:26.922Z,5.90
2023-04-10T09:42:35.563Z,5.20
2023-04-10T09:43:38.985Z,5.63
2023-04-10T09:44:41.442Z,6.20
2023-04-10T09:45:55.069Z,6.03
2023-04-10T09:46:57.200Z,5.75
2023-04-10T09:48:07.805Z,5.88
2023-04-10T09:49:09.493Z,5.95
2023-04-10T09:50:10.929Z,5.95
2023-04-10T09:51:29.933Z,6.13
2023-04-10T09:52:33.570Z,5.97
2023-04-10T09:53:48.495Z,5.43
2023-04-10T09:54:49.955Z,5.82
2023-04-10T09:55:51.634Z,6.05
2023-04-10T09:56:54.473Z,5.85
2023-04-10T09:57:57.677Z,5.20
2023-04-10T09:59:02.225Z,5.70
2023-04-10T10:00:07.069Z,5.28
2023-04-10T10:01:08.772Z,5.88
2023-04-10T10:02:13.313Z,5.63
2023-04-10T10:03:16.676Z,5.40
2023-04-10T10:04:18.548Z,5.70
2023-04-10T10:05:49.557Z,5.82
2023-04-10T10:06:51.157Z,5.53
2023-04-10T10:07:52.604Z,5.10
2023-04-10T10:08:54.645Z,5.63
2023-04-10T10:09:57.917Z,5.03
2023-04-10T10:11:01.695Z,5.50
2023-04-10T10:12:06.925Z,5.45
2023-04-10T10:13:09.891Z,5.47
2023-04-10T10:14:17.377Z,5.70
2023-04-10T10:16:00.479Z,5.80
2023-04-10T10:17:16.803Z,5.70
2023-04-10T10:18:26.352Z,5.90
2023-04-10T10:19:45.306Z,5.22
2023-04-10T10:20:47.312Z,5.55
2023-04-10T10:21:49.172Z,5.50
2023-04-10T10:22:51.842Z,5.75
2023-04-10T10:23:55.679Z,5.40
2023-04-10T10:25:02.889Z,5.00
2023-04-10T10:26:08.764Z,5.40
2023-04-10T10:27:10.806Z,5.25
2023-04-10T10:28:17.526Z,5.20
2023-04-10T10:29:21.958Z,5.00
2023-04-10T10:30:29.981Z,5.07
2023-04-10T10:31:34.107Z,5.05
2023-04-10T10:32:36.644Z,4.88
2023-04-10T10:33:39.255Z,5.05
2023-04-10T10:34:41.500Z,4.90
2023-04-10T10:35:43.774Z,5.75
2023-04-10T10:36:45.520Z,5.80
2023-04-10T10:40:35.972Z,4.60
2023-04-10T10:56:29.056Z,3.92
2023-04-10T10:57:47.239Z,4.13
2023-04-10T10:58:51.163Z,4.03
2023-04-10T10:59:54.310Z,4.30
2023-04-10T11:00:58.969Z,4.18
2023-04-10T11:02:19.694Z,4.38
2023-04-10T11:03:22.640Z,4.30
2023-04-10T11:04:44.872Z,4.25
2023-04-10T11:05:54.192Z,3.63
2023-04-10T11:06:56.640Z,4.30
2023-04-10T11:08:01.966Z,4.22
2023-04-10T11:09:03.648Z,3.75
2023-04-10T11:10:05.572Z,3.70
2023-04-10T11:11:16.887Z,4.00
2023-04-10T11:12:23.808Z,3.92
2023-04-10T11:13:25.387Z,4.07
2023-04-10T11:14:27.496Z,4.18
2023-04-10T11:15:29.106Z,4.10
2023-04-10T11:16:31.542Z,4.40
2023-04-10T11:17:50.715Z,3.95
2023-04-10T11:19:02.695Z,4.10
2023-04-10T11:20:12.028Z,4.22
2023-04-10T11:21:16.133Z,3.75
2023-04-10T11:22:17.646Z,4.20
2023-04-10T11:23:20.457Z,3.97
2023-04-10T11:24:22.269Z,3.47
2023-04-10T11:25:47.785Z,3.80
2023-04-10T11:26:49.313Z,3.72
2023-04-10T11:27:52.818Z,4.28
2023-04-10T11:28:55.518Z,4.00
2023-04-10T11:29:58.320Z,3.60
2023-04-10T11:31:19.859Z,3.80
2023-04-10T11:32:21.507Z,3.42
2023-04-10T11:33:23.218Z,3.58
2023-04-10T11:34:25.415Z,3.97
2023-04-10T11:35:28.321Z,3.88
2023-04-10T11:37:32.174Z,3.78
2023-04-10T11:38:34.374Z,4.10
2023-04-10T11:39:35.874Z,3.75
2023-04-10T11:40:53.363Z,3.65
2023-04-10T11:41:58.434Z,3.70
2023-04-10T11:43:14.147Z,3.47
2023-04-10T11:44:27.128Z,3.53
2023-04-10T11:45:29.096Z,3.65
2023-04-10T11:46:31.740Z,3.60
2023-04-10T11:47:35.673Z,3.60
2023-04-10T11:48:37.609Z,3.70
2023-04-10T11:49:39.136Z,3.83
2023-04-10T11:50:41.385Z,3.67
2023-04-10T11:51:46.511Z,4.05
2023-04-10T11:52:51.288Z,3.90
2023-04-10T11:54:21.259Z,4.20
2023-04-10T11:55:39.217Z,3.53
2023-04-10T11:56:42.582Z,3.92
2023-04-10T11:57:45.668Z,3.85
2023-04-10T11:58:49.764Z,4.10
2023-04-10T11:59:51.649Z,3.83
2023-04-10T12:01:01.947Z,3.83
2023-04-10T12:02:09.270Z,3.40
2023-04-10T12:03:11.810Z,3.63
2023-04-10T12:04:18.886Z,3.90
2023-04-10T12:05:20.832Z,3.88
2023-04-10T12:06:22.538Z,3.90
2023-04-10T12:07:25.519Z,3.50
2023-04-10T12:08:31.700Z,3.45
2023-04-10T12:09:33.746Z,3.70
2023-04-10T12:10:46.981Z,4.00
2023-04-10T12:12:08.979Z,3.85
2023-04-10T12:13:25.189Z,3.45
2023-04-10T12:14:39.722Z,3.78
2023-04-10T12:15:41.273Z,4.07
2023-04-10T12:16:42.979Z,3.25
2023-04-10T12:17:45.055Z,3.60
2023-04-10T12:18:46.838Z,3.70
2023-04-10T12:19:48.541Z,3.58
2023-04-10T12:20:51.877Z,3.90
2023-04-10T12:21:53.915Z,3.85
2023-04-10T12:22:56.831Z,3.75
2023-04-10T12:24:59.744Z,3.78
2023-04-10T12:26:28.013Z,3.28
2023-04-10T12:27:29.461Z,3.58
2023-04-10T12:28:30.947Z,3.50
2023-04-10T12:29:32.427Z,3.60
2023-04-10T12:30:34.083Z,3.58
2023-04-10T12:31:37.331Z,3.85
2023-04-10T12:32:39.660Z,3.97
2023-04-10T12:33:45.399Z,3.50
2023-04-10T12:34:51.075Z,3.83
2023-04-10T12:35:55.680Z,3.88
2023-04-10T12:36:59.738Z,3.80
2023-04-10T12:38:01.383Z,3.92
2023-04-10T12:39:04.420Z,3.88
2023-04-10T12:40:09.047Z,3.40
2023-04-10T12:41:11.738Z,3.60
2023-04-10T12:42:20.976Z,3.35
2023-04-10T12:43:33.866Z,3.28
2023-04-10T12:44:35.815Z,3.30
2023-04-10T12:45:45.030Z,3.70
2023-04-10T12:46:46.727Z,3.22
2023-04-10T12:47:52.140Z,2.55
2023-04-10T12:48:54.696Z,3.30
2023-04-10T12:50:10.655Z,3.20
2023-04-10T12:51:12.341Z,3.60
2023-04-10T12:52:22.890Z,3.15
2023-04-10T12:53:25.513Z,3.30
2023-04-10T12:54:32.020Z,3.38
2023-04-10T12:55:33.830Z,3.30
2023-04-10T12:56:43.606Z,3.33
2023-04-10T12:57:46.596Z,3.20
2023-04-10T12:58:48.040Z,3.15
2023-04-10T12:59:50.139Z,2.88
2023-04-10T13:01:00.450Z,3.15
2023-04-10T13:02:02.028Z,3.28
2023-04-10T13:03:03.985Z,3.13
2023-04-10T13:04:06.554Z,3.33
2023-04-10T13:05:11.481Z,3.47
2023-04-10T13:06:13.255Z,3.10
2023-04-10T13:07:17.981Z,3.10
2023-04-10T13:08:19.949Z,3.13
2023-04-10T13:09:22.444Z,3.13
2023-04-10T13:10:31.188Z,3.58
2023-04-10T13:11:32.637Z,3.05
2023-04-10T13:12:35.281Z,3.63
2023-04-10T13:13:37.148Z,3.45
2023-04-10T13:14:38.660Z,3.58
2023-04-10T13:15:40.953Z,3.50
2023-04-10T13:16:42.538Z,3.50
2023-04-10T13:17:44.079Z,3.60
2023-04-10T13:18:45.759Z,3.80
2023-04-10T13:19:47.245Z,3.40
2023-04-10T13:20:52.392Z,3.50
2023-04-10T13:21:53.993Z,3.42
2023-04-10T13:22:57.413Z,3.38
2023-04-10T13:24:05.126Z,3.20
2023-04-10T13:25:06.972Z,3.50
2023-04-10T13:26:08.449Z,3.60
2023-04-10T13:27:10.811Z,3.30
2023-04-10T13:28:12.305Z,3.55
2023-04-10T13:29:15.865Z,3.30
2023-04-10T13:30:17.434Z,3.22
2023-04-10T13:31:18.954Z,3.67
2023-04-10T13:32:21.188Z,3.33
2023-04-10T13:33:25.028Z,3.40
2023-04-10T13:34:26.581Z,3.40
2023-04-10T13:35:28.084Z,3.45
2023-04-10T13:36:29.957Z,3.65
2023-04-10T13:37:32.310Z,3.40
2023-04-10T13:38:34.072Z,3.85
2023-04-10T13:39:35.568Z,3.55
2023-04-10T13:40:37.241Z,3.30
2023-04-10T13:41:38.698Z,3.42
2023-04-10T13:42:42.442Z,3.20
2023-04-10T13:43:44.164Z,3.67
2023-04-10T13:44:45.766Z,3.20
2023-04-10T13:45:47.269Z,3.40
2023-04-10T13:46:48.753Z,3.25
2023-04-10T13:47:50.634Z,3.13
2023-04-10T13:48:52.320Z,3.20
2023-04-10T13:50:24.683Z,3.53
2023-04-10T13:51:26.571Z,3.28
2023-04-10T13:52:34.554Z,3.30
2023-04-10T13:54:23.404Z,3.33
2023-04-10T13:55:22.780Z,3.35
2023-04-10T13:56:24.326Z,2.90
2023-04-10T13:57:25.906Z,3.30
2023-04-10T13:58:31.680Z,3.45
2023-04-10T13:59:33.482Z,3.53
2023-04-10T14:00:35.150Z,3.15
2023-04-10T14:01:36.738Z,4.03
2023-04-10T14:02:38.315Z,3.50
2023-04-10T14:03:39.888Z,3.42
2023-04-10T14:04:42.642Z,3.30
2023-04-10T14:05:45.640Z,2.97
2023-04-10T14:06:48.012Z,3.33
2023-04-10T14:07:51.980Z,3.08
2023-04-10T14:08:56.704Z,2.97
2023-04-10T14:10:02.162Z,2.80
2023-04-10T14:11:03.691Z,2.67
2023-04-10T14:12:12.012Z,3.25
2023-04-10T14:13:13.489Z,3.05
2023-04-10T14:14:17.313Z,3.08
2023-04-10T14:15:23.488Z,2.80
2023-04-10T14:16:25.040Z,3.20
2023-04-10T14:17:29.630Z,3.50
2023-04-10T14:18:31.221Z,3.25
2023-04-10T14:19:33.990Z,3.03
2023-04-10T14:20:35.530Z,2.60
2023-04-10T14:21:37.456Z,2.88
2023-04-10T14:22:39.547Z,2.90
2023-04-10T14:23:42.201Z,4.20
2023-04-10T14:24:43.850Z,2.85
2023-04-10T14:25:46.105Z,2.67
2023-04-10T14:26:47.586Z,3.10
2023-04-10T14:27:49.032Z,3.38
2023-04-10T14:28:50.537Z,3.45
2023-04-10T14:29:55.001Z,2.80
2023-04-10T14:30:56.705Z,3.10
2023-04-10T14:31:58.741Z,3.40
2023-04-10T14:33:00.333Z,3.50
2023-04-10T14:34:01.949Z,3.10
2023-04-10T14:35:03.580Z,2.80
2023-04-10T14:36:06.712Z,2.90
2023-04-10T14:37:08.361Z,3.00
2023-04-10T14:38:10.125Z,3.08
2023-04-10T14:39:11.602Z,3.08